createdAt,value
2024-02-12T00:02:20.992Z,78.57
2024-02-12T00:05:51.640Z,80.10
2024-02-12T00:09:10.632Z,72.63
2024-02-12T00:12:34.458Z,77.80
2024-02-12T00:23:01.981Z,77.38
2024-02-12T00:29:02.999Z,81.57
2024-02-12T00:29:57.737Z,76.47
2024-02-12T00:33:04.925Z,79.83
2024-02-12T00:35:59.984Z,73.17
2024-02-12T00:39:13.582Z,80.27
2024-02-12T00:42:46.924Z,75.67
2024-02-12T00:46:14.873Z,81.87
2024-02-12T00:49:30.557Z,74.60
2024-02-12T00:56:49.060Z,87.90
2024-02-12T01:03:27.403Z,82.00
2024-02-12T01:07:01.048Z,81.97
2024-02-12T01:10:14.342Z,82.50
2024-02-12T01:13:47.891Z,80.43
2024-02-12T01:16:45.196Z,84.17
2024-02-12T01:19:57.196Z,79.10
2024-02-12T01:23:36.704Z,80.17
2024-02-12T01:27:01.162Z,83.40
2024-02-12T01:30:15.307Z,92.60
2024-02-12T01:33:30.649Z,81.80
2024-02-12T01:36:51.500Z,89.23
2024-02-12T01:40:10.384Z,88.10
2024-02-12T01:43:05.195Z,85.00
2024-02-12T01:46:34.592Z,82.90
2024-02-12T01:53:40.420Z,84.25
2024-02-12T01:53:45.469Z,86.50
2024-02-12T01:56:58.754Z,75.80
2024-02-12T02:03:43.887Z,87.57
2024-02-12T02:06:47.038Z,93.25
2024-02-12T02:10:10.154Z,80.85
2024-02-12T02:10:44.097Z,82.55
2024-02-12T02:13:41.793Z,91.85
2024-02-12T02:16:52.322Z,86.80
2024-02-12T02:20:03.106Z,87.55
2024-02-12T02:23:09.752Z,86.47
2024-02-12T02:26:34.119Z,85.70
2024-02-12T02:29:33.233Z,89.72
2024-02-12T02:32:34.416Z,88.75
2024-02-12T02:38:57.153Z,83.38
2024-02-12T02:42:12.686Z,89.13
2024-02-12T02:45:12.694Z,84.10
2024-02-12T02:48:25.175Z,85.03
2024-02-12T02:54:43.610Z,79.97
2024-02-12T03:01:02.963Z,69.25
2024-02-12T03:07:47.339Z,75.38
2024-02-12T03:11:09.993Z,77.35
2024-02-12T03:17:15.574Z,71.43
2024-02-12T03:24:06.167Z,70.32
2024-02-12T03:27:21.780Z,76.32
2024-02-12T03:30:12.514Z,76.13
2024-02-12T03:33:35.965Z,63.90
2024-02-12T03:37:02.089Z,65.45
2024-02-12T03:40:24.494Z,69.88
2024-02-12T03:43:40.614Z,67.82
2024-02-12T03:50:30.253Z,64.00
2024-02-12T03:53:43.571Z,64.05
2024-02-12T03:58:06.853Z,57.42
2024-02-12T04:00:40.000Z,59.92
2024-02-12T04:04:06.857Z,60.78
2024-02-12T04:07:40.254Z,54.47
2024-02-12T04:17:34.599Z,60.00
2024-02-12T04:21:15.705Z,52.15
2024-02-12T04:24:19.338Z,52.35
2024-02-12T04:28:07.579Z,57.10
2024-02-12T04:31:13.674Z,49.13
2024-02-12T04:34:50.043Z,46.97
2024-02-12T04:38:14.102Z,46.75
2024-02-12T04:45:05.046Z,53.33
2024-02-12T04:48:08.132Z,52.30
2024-02-12T04:51:28.003Z,50.80
2024-02-12T04:54:49.245Z,54.03
2024-02-12T04:57:51.740Z,47.40
2024-02-12T05:01:19.033Z,44.15
2024-02-12T05:04:49.448Z,54.58
2024-02-12T05:08:17.603Z,43.10
2024-02-12T05:11:22.689Z,49.03
2024-02-12T05:17:55.224Z,52.07
2024-02-12T05:27:45.778Z,45.47
2024-02-12T05:30:50.372Z,49.47
2024-02-12T05:34:21.209Z,45.80
2024-02-12T05:41:30.743Z,46.00
2024-02-12T05:44:46.041Z,45.00
2024-02-12T05:47:44.156Z,45.23
2024-02-12T05:51:16.294Z,40.83
2024-02-12T05:57:50.360Z,43.03
2024-02-12T06:01:04.187Z,44.87
2024-02-12T06:07:53.458Z,39.03
2024-02-12T06:11:54.509Z,46.43
2024-02-12T06:15:00.446Z,45.07
2024-02-12T06:21:25.643Z,38.33
2024-02-12T06:24:40.826Z,42.03
2024-02-12T06:27:53.810Z,38.47
2024-02-12T06:31:27.733Z,36.53
2024-02-12T06:35:06.869Z,41.03
2024-02-12T06:38:10.805Z,44.37
2024-02-12T06:45:06.552Z,36.67
2024-02-12T06:51:41.316Z,36.87
2024-02-12T06:54:49.333Z,35.23
2024-02-12T07:01:36.680Z,43.50
2024-02-12T07:05:08.522Z,45.60
2024-02-12T07:08:40.754Z,42.63
2024-02-12T07:11:48.655Z,38.33
2024-02-12T07:15:28.814Z,38.60
2024-02-12T07:22:22.212Z,49.67
2024-02-12T07:25:26.884Z,35.47
2024-02-12T07:28:42.950Z,38.77
2024-02-12T07:32:11.829Z,36.23
2024-02-12T07:35:11.852Z,30.53
2024-02-12T07:38:53.448Z,29.37
2024-02-12T07:42:06.006Z,33.23
2024-02-12T07:45:32.158Z,34.23
2024-02-12T07:48:49.102Z,34.90
2024-02-12T08:02:21.532Z,34.33
2024-02-12T08:03:50.011Z,32.90
2024-02-12T08:05:30.159Z,30.27
2024-02-12T08:12:58.144Z,32.63
2024-02-12T08:16:07.348Z,31.13
2024-02-12T08:19:19.050Z,33.77
2024-02-12T08:22:42.743Z,29.20
2024-02-12T08:26:06.646Z,29.20
2024-02-12T08:29:25.095Z,23.20
2024-02-12T08:32:56.102Z,32.27
2024-02-12T08:42:44.793Z,31.00
2024-02-12T08:43:47.698Z,32.97
2024-02-12T08:50:53.091Z,30.57
2024-02-12T08:57:27.126Z,37.47
2024-02-12T09:00:52.306Z,30.35
2024-02-12T09:04:23.610Z,40.17
2024-02-12T09:11:15.890Z,30.25
2024-02-12T09:14:43.472Z,28.45
2024-02-12T09:18:00.502Z,20.42
2024-02-12T09:21:32.904Z,31.48
2024-02-12T09:24:46.379Z,29.67
2024-02-12T09:28:35.361Z,23.75
2024-02-12T09:32:09.491Z,33.72
2024-02-12T09:35:28.506Z,30.25
2024-02-12T09:39:29.691Z,31.25
2024-02-12T09:42:57.154Z,24.67
2024-02-12T09:46:10.781Z,29.90
2024-02-12T09:49:53.162Z,28.02
2024-02-12T09:52:53.624Z,18.95
2024-02-12T09:55:52.659Z,28.83
2024-02-12T09:59:00.005Z,27.75
2024-02-12T10:02:27.711Z,22.77
2024-02-12T10:06:00.338Z,24.55
2024-02-12T10:12:21.848Z,23.65
2024-02-12T10:16:33.515Z,32.45
2024-02-12T10:20:26.903Z,26.95
2024-02-12T10:27:07.639Z,30.08
2024-02-12T10:30:30.571Z,24.27
2024-02-12T10:34:01.759Z,30.42
2024-02-12T10:38:13.307Z,22.98
2024-02-12T10:42:00.323Z,22.02
2024-02-12T10:45:44.909Z,22.13
2024-02-12T10:48:52.009Z,17.42
2024-02-12T10:51:54.571Z,14.68
2024-02-12T10:55:23.823Z,18.77
2024-02-12T10:58:27.236Z,15.57
2024-02-12T11:02:15.513Z,16.02
2024-02-12T11:05:40.118Z,8.80
2024-02-12T11:09:01.074Z,8.95
2024-02-12T11:12:13.248Z,8.75
2024-02-12T11:15:05.936Z,7.20
2024-02-12T11:18:38.279Z,7.85
2024-02-12T11:22:09.535Z,7.28
2024-02-12T11:25:23.093Z,8.23
2024-02-12T11:28:31.077Z,3.20
2024-02-12T11:31:45.177Z,3.33
2024-02-12T11:34:51.510Z,10.48
2024-02-12T11:42:22.341Z,12.95
2024-02-12T11:49:08.616Z,5.95
2024-02-12T11:56:09.419Z,3.55
2024-02-12T11:59:40.211Z,3.67
2024-02-12T12:02:52.083Z,5.93
2024-02-12T12:06:20.693Z,5.38
2024-02-12T12:13:22.580Z,6.40
2024-02-12T12:20:08.793Z,4.70
2024-02-12T12:24:10.824Z,6.38
2024-02-12T12:27:27.911Z,4.88
2024-02-12T12:31:24.203Z,1.58
2024-02-12T12:37:49.959Z,3.85
2024-02-12T12:41:47.402Z,5.65
2024-02-12T12:45:06.010Z,4.68
2024-02-12T12:48:35.144Z,5.50
2024-02-12T12:52:03.617Z,7.07
2024-02-12T12:55:09.257Z,4.35
2024-02-12T12:58:28.359Z,2.25
2024-02-12T13:01:53.584Z,2.75
2024-02-12T13:05:10.083Z,6.65
2024-02-12T13:08:22.248Z,2.10
2024-02-12T13:11:58.884Z,3.42
2024-02-12T13:15:51.686Z,5.90
2024-02-12T13:19:33.823Z,2.00
2024-02-12T13:24:05.501Z,4.43
2024-02-12T13:30:09.223Z,5.57
2024-02-12T13:33:23.194Z,3.08
2024-02-12T13:37:05.013Z,2.75
2024-02-12T13:40:23.195Z,3.83
2024-02-12T13:43:38.872Z,5.13
2024-02-12T13:50:10.527Z,4.05
2024-02-12T13:54:19.485Z,3.53
2024-02-12T13:58:13.339Z,2.03
2024-02-12T14:01:23.950Z,5.05
2024-02-12T14:04:55.715Z,4.82
2024-02-12T14:08:26.106Z,5.13
2024-02-12T14:13:08.437Z,5.97
2024-02-12T14:16:04.058Z,3.53
2024-02-12T14:19:52.129Z,3.55
2024-02-12T14:26:33.188Z,4.78
2024-02-12T14:29:52.272Z,5.45
2024-02-12T14:33:23.991Z,4.70
2024-02-12T14:40:06.295Z,3.85
2024-02-12T14:43:27.267Z,3.50
2024-02-12T14:47:10.720Z,5.43
2024-02-12T14:50:44.109Z,6.68
2024-02-12T14:53:58.613Z,1.85
2024-02-12T14:56:58.161Z,5.35
2024-02-12T15:00:32.295Z,4.57
2024-02-12T15:04:01.097Z,4.47
2024-02-12T15:07:54.034Z,3.40
2024-02-12T15:11:35.015Z,5.03
2024-02-12T15:23:22.019Z,3.25
2024-02-12T15:32:18.775Z,4.97
2024-02-12T15:39:18.164Z,5.90
2024-02-12T15:43:00.671Z,6.15
2024-02-12T15:46:13.887Z,3.10
2024-02-12T15:48:42.805Z,2.88
2024-02-12T15:51:13.983Z,3.15
2024-02-12T15:53:45.846Z,1.92
2024-02-12T15:56:18.592Z,1.58
2024-02-12T15:58:49.147Z,2.03
2024-02-12T16:01:21.581Z,3.25
2024-02-12T16:03:50.032Z,5.18
2024-02-12T16:06:18.606Z,2.03
2024-02-12T16:08:47.916Z,5.82
2024-02-12T16:11:51.328Z,1.88
2024-02-12T16:18:50.141Z,1.17
2024-02-12T16:21:54.054Z,3.40
2024-02-12T16:25:04.237Z,4.00
2024-02-12T16:28:45.259Z,6.72
2024-02-12T16:32:02.692Z,4.78
2024-02-12T16:35:27.900Z,4.30
2024-02-12T16:38:49.372Z,3.80
2024-02-12T16:45:45.369Z,10.65
2024-02-12T16:48:58.042Z,3.80
2024-02-12T16:52:05.051Z,5.22
2024-02-12T16:55:34.810Z,4.18
2024-02-12T16:58:53.986Z,10.35
2024-02-12T17:02:08.875Z,10.02
2024-02-12T17:05:18.542Z,8.13
2024-02-12T17:08:59.472Z,6.03
2024-02-12T17:12:03.294Z,5.32
2024-02-12T17:23:10.685Z,7.68
2024-02-12T17:27:32.393Z,6.23
2024-02-12T17:31:11.064Z,6.30
2024-02-12T17:34:57.346Z,3.63
2024-02-12T17:38:13.719Z,7.93
2024-02-12T17:40:42.383Z,4.70
2024-02-12T17:43:12.404Z,5.90
2024-02-12T17:45:42.342Z,6.97
2024-02-12T17:48:12.803Z,7.70
2024-02-12T17:50:41.225Z,6.83
2024-02-12T17:53:36.680Z,7.07
2024-02-12T17:56:08.506Z,9.45
2024-02-12T17:58:37.182Z,7.23
2024-02-12T18:01:08.709Z,8.63
2024-02-12T18:03:37.529Z,9.97
2024-02-12T18:06:09.448Z,8.67
2024-02-12T18:08:38.287Z,12.90
2024-02-12T18:11:06.928Z,7.93
2024-02-12T18:13:35.653Z,9.38
2024-02-12T18:16:04.316Z,9.55
2024-02-12T18:18:35.847Z,8.70
2024-02-12T18:21:04.653Z,6.63
2024-02-12T18:23:33.202Z,15.27
2024-02-12T18:26:02.550Z,17.87
2024-02-12T18:28:31.472Z,19.50
2024-02-12T18:31:00.124Z,13.77
2024-02-12T18:33:28.884Z,11.40
2024-02-12T18:35:58.921Z,12.77
2024-02-12T18:38:27.604Z,12.93
2024-02-12T18:40:57.437Z,11.27
2024-02-12T18:43:26.091Z,9.73
2024-02-12T18:45:56.042Z,15.27
2024-02-12T18:48:25.544Z,14.40
2024-02-12T18:50:54.258Z,15.43
2024-02-12T18:53:24.338Z,13.37
2024-02-12T18:55:52.977Z,16.80
2024-02-12T18:58:21.847Z,11.77
2024-02-12T19:00:50.539Z,20.70
2024-02-12T19:03:21.199Z,13.27
2024-02-12T19:05:51.720Z,15.80
2024-02-12T19:08:22.758Z,16.30
2024-02-12T19:10:53.134Z,12.70
2024-02-12T19:13:21.875Z,12.60
2024-02-12T19:15:52.014Z,13.90
2024-02-12T19:18:20.808Z,13.03
2024-02-12T19:20:49.750Z,15.63
2024-02-12T19:23:19.218Z,18.47
2024-02-12T19:25:47.841Z,14.20
2024-02-12T19:28:17.856Z,20.03
2024-02-12T19:30:48.761Z,25.00
2024-02-12T19:33:17.416Z,23.87
2024-02-12T19:35:47.644Z,21.23
2024-02-12T19:38:16.058Z,21.73
2024-02-12T19:40:44.796Z,26.50
2024-02-12T19:44:19.977Z,34.23
2024-02-12T19:46:52.778Z,25.67
2024-02-12T19:49:21.605Z,27.40
2024-02-12T19:51:50.395Z,32.80
2024-02-12T19:54:20.579Z,53.67
2024-02-12T19:56:49.309Z,33.50
2024-02-12T19:59:19.351Z,27.57
2024-02-12T20:01:48.087Z,22.40
2024-02-12T20:04:16.748Z,21.63
2024-02-12T20:06:45.474Z,24.67
2024-02-12T20:09:14.136Z,23.60
2024-02-12T20:11:42.796Z,24.97
2024-02-12T20:14:11.997Z,21.80
2024-02-12T20:16:42.376Z,19.60
2024-02-12T20:19:11.129Z,25.77
2024-02-12T20:21:39.720Z,21.07
2024-02-12T20:24:08.714Z,24.27
2024-02-12T20:33:22.113Z,20.17
2024-02-12T20:36:32.250Z,20.23
2024-02-12T20:39:00.921Z,16.43
2024-02-12T20:42:12.782Z,18.37
2024-02-12T20:45:39.707Z,20.23
2024-02-12T20:49:03.408Z,18.20
2024-02-12T20:51:34.768Z,20.30
2024-02-12T20:54:03.562Z,21.40
2024-02-12T20:56:32.324Z,19.17
2024-02-12T20:59:42.104Z,24.37
2024-02-12T21:03:08.790Z,17.97
2024-02-12T21:06:40.373Z,22.60
2024-02-12T21:09:53.365Z,22.03
2024-02-12T21:13:02.154Z,25.40
2024-02-12T21:16:07.310Z,20.00
2024-02-12T21:18:36.269Z,23.97
2024-02-12T21:24:00.951Z,29.07
2024-02-12T21:26:41.121Z,20.33
2024-02-12T21:29:10.731Z,29.63
2024-02-12T21:31:41.724Z,23.93
2024-02-12T21:34:12.141Z,28.10
2024-02-12T21:36:40.797Z,28.80
2024-02-12T21:39:13.185Z,26.43
2024-02-12T21:41:53.170Z,29.10
2024-02-12T21:45:03.316Z,28.33
2024-02-12T21:47:38.217Z,31.27
2024-02-12T21:50:08.583Z,27.20
2024-02-12T21:52:37.207Z,25.77
2024-02-12T21:55:06.623Z,31.03
2024-02-12T21:57:36.649Z,26.07
2024-02-12T22:00:08.560Z,27.50
2024-02-12T22:02:39.397Z,26.63
2024-02-12T22:05:08.578Z,25.90
2024-02-12T22:07:37.193Z,28.93
2024-02-12T22:10:06.197Z,26.00
2024-02-12T22:12:36.189Z,28.17
2024-02-12T22:15:10.007Z,29.37
2024-02-12T22:17:42.173Z,25.33
2024-02-12T22:20:12.418Z,23.37
2024-02-12T22:22:41.364Z,28.17
2024-02-12T22:25:10.258Z,22.87
2024-02-12T22:28:14.459Z,25.27
2024-02-12T22:38:23.665Z,22.83
2024-02-12T22:40:52.261Z,22.67
2024-02-12T22:43:22.280Z,26.27
2024-02-12T22:45:50.931Z,23.43
2024-02-12T22:48:19.599Z,26.60
2024-02-12T22:50:48.670Z,30.23
2024-02-12T22:53:19.013Z,24.97
2024-02-12T22:56:03.816Z,25.17
2024-02-12T22:59:25.507Z,22.17
2024-02-12T23:03:01.818Z,25.50
2024-02-12T23:07:21.282Z,27.57
2024-02-12T23:09:34.553Z,27.67
2024-02-12T23:16:09.031Z,21.47
2024-02-12T23:17:55.783Z,18.53
2024-02-12T23:20:18.031Z,19.30
2024-02-12T23:23:48.328Z,23.63
2024-02-12T23:27:25.248Z,20.30
2024-02-12T23:37:25.884Z,19.67
2024-02-12T23:40:22.942Z,19.27
2024-02-12T23:43:55.836Z,20.90
2024-02-12T23:50:32.787Z,22.23
2024-02-12T23:53:46.755Z,17.87
2024-02-12T23:57:38.550Z,19.53
